sensor_id;sensor_type;location;lat;lon;timestamp;temperature;humidity
74368;DHT22;64991;41.090;-8.118;2023-05-14T00:03:03;21.30;73.20
74368;DHT22;64991;41.090;-8.118;2023-05-14T00:08:07;21.30;73.30
74368;DHT22;64991;41.090;-8.118;2023-05-14T00:13:12;21.40;73.30
74368;DHT22;64991;41.090;-8.118;2023-05-14T00:18:15;21.40;73.40
74368;DHT22;64991;41.090;-8.118;2023-05-14T00:23:19;21.30;73.40
74368;DHT22;64991;41.090;-8.118;2023-05-14T00:28:24;21.30;73.30
74368;DHT22;64991;41.090;-8.118;2023-05-14T00:33:28;21.40;73.80
74368;DHT22;64991;41.090;-8.118;2023-05-14T00:38:32;21.30;74.00
74368;DHT22;64991;41.090;-8.118;2023-05-14T00:43:37;21.30;73.80
74368;DHT22;64991;41.090;-8.118;2023-05-14T00:48:40;21.40;73.70
74368;DHT22;64991;41.090;-8.118;2023-05-14T00:53:44;21.30;74.00
74368;DHT22;64991;41.090;-8.118;2023-05-14T00:58:49;21.30;73.60
74368;DHT22;64991;41.090;-8.118;2023-05-14T01:03:53;21.40;73.60
74368;DHT22;64991;41.090;-8.118;2023-05-14T01:09:00;21.40;73.60
74368;DHT22;64991;41.090;-8.118;2023-05-14T01:14:11;21.30;73.40
74368;DHT22;64991;41.090;-8.118;2023-05-14T01:19:21;21.30;73.40
74368;DHT22;64991;41.090;-8.118;2023-05-14T01:24:33;21.40;73.50
74368;DHT22;64991;41.090;-8.118;2023-05-14T01:29:37;21.40;73.40
74368;DHT22;64991;41.090;-8.118;2023-05-14T01:34:45;21.30;73.60
74368;DHT22;64991;41.090;-8.118;2023-05-14T01:39:51;21.40;73.60
74368;DHT22;64991;41.090;-8.118;2023-05-14T01:44:55;21.30;73.30
74368;DHT22;64991;41.090;-8.118;2023-05-14T01:49:58;21.30;73.20
74368;DHT22;64991;41.090;-8.118;2023-05-14T01:55:04;21.30;73.60
74368;DHT22;64991;41.090;-8.118;2023-05-14T02:00:08;21.30;73.40
74368;DHT22;64991;41.090;-8.118;2023-05-14T02:05:12;21.40;73.30
74368;DHT22;64991;41.090;-8.118;2023-05-14T02:10:17;21.30;73.40
74368;DHT22;64991;41.090;-8.118;2023-05-14T02:15:21;21.30;73.30
74368;DHT22;64991;41.090;-8.118;2023-05-14T02:20:25;21.30;73.30
74368;DHT22;64991;41.090;-8.118;2023-05-14T02:25:30;21.30;73.50
74368;DHT22;64991;41.090;-8.118;2023-05-14T02:30:33;21.30;73.50
74368;DHT22;64991;41.090;-8.118;2023-05-14T02:35:37;21.30;73.40
74368;DHT22;64991;41.090;-8.118;2023-05-14T02:40:42;21.30;73.30
74368;DHT22;64991;41.090;-8.118;2023-05-14T02:45:45;21.40;73.20
74368;DHT22;64991;41.090;-8.118;2023-05-14T02:50:49;21.30;73.20
74368;DHT22;64991;41.090;-8.118;2023-05-14T02:55:54;21.30;73.00
74368;DHT22;64991;41.090;-8.118;2023-05-14T03:00:58;21.30;73.20
74368;DHT22;64991;41.090;-8.118;2023-05-14T03:06:02;21.30;72.90
74368;DHT22;64991;41.090;-8.118;2023-05-14T03:11:08;21.30;73.20
74368;DHT22;64991;41.090;-8.118;2023-05-14T03:16:11;21.30;73.30
74368;DHT22;64991;41.090;-8.118;2023-05-14T03:21:15;21.30;73.20
74368;DHT22;64991;41.090;-8.118;2023-05-14T03:26:20;21.30;73.00
74368;DHT22;64991;41.090;-8.118;2023-05-14T03:31:23;21.30;73.10
74368;DHT22;64991;41.090;-8.118;2023-05-14T03:36:27;21.30;73.10
74368;DHT22;64991;41.090;-8.118;2023-05-14T03:41:33;21.30;73.10
74368;DHT22;64991;41.090;-8.118;2023-05-14T03:46:38;21.30;73.30
74368;DHT22;64991;41.090;-8.118;2023-05-14T03:51:41;21.30;73.70
74368;DHT22;64991;41.090;-8.118;2023-05-14T03:56:46;21.20;73.30
74368;DHT22;64991;41.090;-8.118;2023-05-14T04:01:50;21.30;73.00
74368;DHT22;64991;41.090;-8.118;2023-05-14T04:06:53;21.20;72.90
74368;DHT22;64991;41.090;-8.118;2023-05-14T04:11:58;21.20;73.60
74368;DHT22;64991;41.090;-8.118;2023-05-14T04:17:02;21.30;73.20
74368;DHT22;64991;41.090;-8.118;2023-05-14T04:22:05;21.20;73.00
74368;DHT22;64991;41.090;-8.118;2023-05-14T04:27:10;21.20;73.10
74368;DHT22;64991;41.090;-8.118;2023-05-14T04:32:16;21.30;72.90
74368;DHT22;64991;41.090;-8.118;2023-05-14T04:37:19;21.20;73.00
74368;DHT22;64991;41.090;-8.118;2023-05-14T04:42:24;21.30;73.10
74368;DHT22;64991;41.090;-8.118;2023-05-14T04:47:28;21.20;73.00
74368;DHT22;64991;41.090;-8.118;2023-05-14T04:52:31;21.20;72.80
74368;DHT22;64991;41.090;-8.118;2023-05-14T04:57:36;21.20;72.90
74368;DHT22;64991;41.090;-8.118;2023-05-14T05:02:41;21.30;72.90
74368;DHT22;64991;41.090;-8.118;2023-05-14T05:07:45;21.20;73.50
74368;DHT22;64991;41.090;-8.118;2023-05-14T05:12:50;21.20;73.50
74368;DHT22;64991;41.090;-8.118;2023-05-14T05:17:53;21.30;74.00
74368;DHT22;64991;41.090;-8.118;2023-05-14T05:22:57;21.20;74.40
74368;DHT22;64991;41.090;-8.118;2023-05-14T05:28:02;21.30;74.60
74368;DHT22;64991;41.090;-8.118;2023-05-14T05:33:06;21.20;74.50
74368;DHT22;64991;41.090;-8.118;2023-05-14T05:38:10;21.20;73.80
74368;DHT22;64991;41.090;-8.118;2023-05-14T05:43:15;21.30;73.60
74368;DHT22;64991;41.090;-8.118;2023-05-14T05:48:18;21.20;73.80
74368;DHT22;64991;41.090;-8.118;2023-05-14T05:53:22;21.30;73.70
74368;DHT22;64991;41.090;-8.118;2023-05-14T05:58:27;21.20;73.50
74368;DHT22;64991;41.090;-8.118;2023-05-14T06:03:31;21.30;73.50
74368;DHT22;64991;41.090;-8.118;2023-05-14T06:08:35;21.30;73.70
74368;DHT22;64991;41.090;-8.118;2023-05-14T06:13:39;21.30;73.30
74368;DHT22;64991;41.090;-8.118;2023-05-14T06:18:43;21.30;73.50
74368;DHT22;64991;41.090;-8.118;2023-05-14T06:23:47;21.30;73.30
74368;DHT22;64991;41.090;-8.118;2023-05-14T06:28:52;21.40;73.40
74368;DHT22;64991;41.090;-8.118;2023-05-14T06:33:55;21.40;73.60
74368;DHT22;64991;41.090;-8.118;2023-05-14T06:38:59;21.40;73.40
74368;DHT22;64991;41.090;-8.118;2023-05-14T06:44:04;21.30;73.20
74368;DHT22;64991;41.090;-8.118;2023-05-14T06:49:07;21.40;73.50
74368;DHT22;64991;41.090;-8.118;2023-05-14T06:54:11;21.40;73.30
74368;DHT22;64991;41.090;-8.118;2023-05-14T06:59:16;21.40;73.40
74368;DHT22;64991;41.090;-8.118;2023-05-14T07:04:20;21.40;73.50
74368;DHT22;64991;41.090;-8.118;2023-05-14T07:09:23;21.50;73.90
74368;DHT22;64991;41.090;-8.118;2023-05-14T07:14:28;21.50;73.60
74368;DHT22;64991;41.090;-8.118;2023-05-14T07:19:32;21.50;73.60
74368;DHT22;64991;41.090;-8.118;2023-05-14T07:24:35;21.50;73.50
74368;DHT22;64991;41.090;-8.118;2023-05-14T07:29:40;21.50;73.70
74368;DHT22;64991;41.090;-8.118;2023-05-14T07:34:44;21.40;73.70
74368;DHT22;64991;41.090;-8.118;2023-05-14T07:39:47;21.50;73.80
74368;DHT22;64991;41.090;-8.118;2023-05-14T07:44:52;21.50;73.30
74368;DHT22;64991;41.090;-8.118;2023-05-14T07:49:56;21.60;73.90
74368;DHT22;64991;41.090;-8.118;2023-05-14T07:55:01;21.50;73.70
74368;DHT22;64991;41.090;-8.118;2023-05-14T08:00:07;21.50;74.10
74368;DHT22;64991;41.090;-8.118;2023-05-14T08:05:11;21.60;73.80
74368;DHT22;64991;41.090;-8.118;2023-05-14T08:10:14;21.60;73.90
74368;DHT22;64991;41.090;-8.118;2023-05-14T08:15:19;21.60;73.60
74368;DHT22;64991;41.090;-8.118;2023-05-14T08:20:25;21.70;73.30
74368;DHT22;64991;41.090;-8.118;2023-05-14T08:25:29;21.70;73.20
74368;DHT22;64991;41.090;-8.118;2023-05-14T08:30:34;21.70;72.80
74368;DHT22;64991;41.090;-8.118;2023-05-14T08:35:37;21.70;72.70
74368;DHT22;64991;41.090;-8.118;2023-05-14T08:40:41;21.70;73.40
74368;DHT22;64991;41.090;-8.118;2023-05-14T08:45:46;21.70;74.00
74368;DHT22;64991;41.090;-8.118;2023-05-14T08:50:51;21.80;73.90
74368;DHT22;64991;41.090;-8.118;2023-05-14T08:55:55;21.80;73.50
74368;DHT22;64991;41.090;-8.118;2023-05-14T09:01:00;21.80;73.40
74368;DHT22;64991;41.090;-8.118;2023-05-14T09:06:03;21.80;73.60
74368;DHT22;64991;41.090;-8.118;2023-05-14T09:11:08;21.70;73.90
74368;DHT22;64991;41.090;-8.118;2023-05-14T09:16:13;21.80;73.10
74368;DHT22;64991;41.090;-8.118;2023-05-14T09:21:17;21.90;72.80
74368;DHT22;64991;41.090;-8.118;2023-05-14T09:26:22;21.70;72.10
74368;DHT22;64991;41.090;-8.118;2023-05-14T09:31:29;21.80;72.00
74368;DHT22;64991;41.090;-8.118;2023-05-14T09:36:34;21.80;72.10
74368;DHT22;64991;41.090;-8.118;2023-05-14T09:41:37;21.80;72.50
74368;DHT22;64991;41.090;-8.118;2023-05-14T09:46:42;21.80;72.40
74368;DHT22;64991;41.090;-8.118;2023-05-14T09:51:47;21.80;72.50
74368;DHT22;64991;41.090;-8.118;2023-05-14T09:56:50;21.80;72.40
74368;DHT22;64991;41.090;-8.118;2023-05-14T10:01:57;21.90;72.30
74368;DHT22;64991;41.090;-8.118;2023-05-14T10:07:01;21.80;72.40
74368;DHT22;64991;41.090;-8.118;2023-05-14T10:12:05;21.90;72.70
74368;DHT22;64991;41.090;-8.118;2023-05-14T10:17:11;21.80;72.90
74368;DHT22;64991;41.090;-8.118;2023-05-14T10:22:21;21.80;72.80
74368;DHT22;64991;41.090;-8.118;2023-05-14T10:27:25;21.80;73.00
74368;DHT22;64991;41.090;-8.118;2023-05-14T10:32:31;21.80;72.50
74368;DHT22;64991;41.090;-8.118;2023-05-14T10:37:35;21.90;72.40
74368;DHT22;64991;41.090;-8.118;2023-05-14T10:42:38;21.70;72.50
74368;DHT22;64991;41.090;-8.118;2023-05-14T10:47:45;21.80;73.00
74368;DHT22;64991;41.090;-8.118;2023-05-14T10:52:49;21.90;72.90
74368;DHT22;64991;41.090;-8.118;2023-05-14T10:57:53;21.80;73.10
74368;DHT22;64991;41.090;-8.118;2023-05-14T11:02:58;21.90;73.10
74368;DHT22;64991;41.090;-8.118;2023-05-14T11:08:03;21.90;73.30
74368;DHT22;64991;41.090;-8.118;2023-05-14T11:13:08;21.90;73.20
74368;DHT22;64991;41.090;-8.118;2023-05-14T11:18:24;21.90;73.20
74368;DHT22;64991;41.090;-8.118;2023-05-14T11:23:28;21.90;73.40
74368;DHT22;64991;41.090;-8.118;2023-05-14T11:28:32;21.80;73.60
74368;DHT22;64991;41.090;-8.118;2023-05-14T11:33:37;21.90;73.40
74368;DHT22;64991;41.090;-8.118;2023-05-14T11:38:45;22.00;71.10
74368;DHT22;64991;41.090;-8.118;2023-05-14T11:43:49;22.00;68.40
74368;DHT22;64991;41.090;-8.118;2023-05-14T11:48:54;22.10;68.10
74368;DHT22;64991;41.090;-8.118;2023-05-14T11:53:58;22.00;67.40
74368;DHT22;64991;41.090;-8.118;2023-05-14T11:59:01;22.10;65.50
74368;DHT22;64991;41.090;-8.118;2023-05-14T12:04:06;22.10;65.20
74368;DHT22;64991;41.090;-8.118;2023-05-14T12:09:11;22.00;70.30
74368;DHT22;64991;41.090;-8.118;2023-05-14T12:14:17;22.00;71.10
74368;DHT22;64991;41.090;-8.118;2023-05-14T12:19:24;22.00;70.50
74368;DHT22;64991;41.090;-8.118;2023-05-14T12:24:27;22.10;68.40
74368;DHT22;64991;41.090;-8.118;2023-05-14T12:29:34;22.00;67.10
74368;DHT22;64991;41.090;-8.118;2023-05-14T12:34:40;22.10;68.30
74368;DHT22;64991;41.090;-8.118;2023-05-14T12:39:43;22.10;68.90
74368;DHT22;64991;41.090;-8.118;2023-05-14T12:44:47;22.00;69.80
74368;DHT22;64991;41.090;-8.118;2023-05-14T12:49:52;22.00;70.70
74368;DHT22;64991;41.090;-8.118;2023-05-14T12:54:55;22.00;70.90
74368;DHT22;64991;41.090;-8.118;2023-05-14T12:59:58;22.10;69.90
74368;DHT22;64991;41.090;-8.118;2023-05-14T13:05:04;22.00;71.00
74368;DHT22;64991;41.090;-8.118;2023-05-14T13:10:08;22.00;70.40
74368;DHT22;64991;41.090;-8.118;2023-05-14T13:15:12;22.10;69.90
74368;DHT22;64991;41.090;-8.118;2023-05-14T13:20:17;22.00;69.90
74368;DHT22;64991;41.090;-8.118;2023-05-14T13:25:21;22.00;70.60
74368;DHT22;64991;41.090;-8.118;2023-05-14T13:30:25;22.00;70.50
74368;DHT22;64991;41.090;-8.118;2023-05-14T13:35:30;22.00;71.20
74368;DHT22;64991;41.090;-8.118;2023-05-14T13:40:35;22.10;71.30
74368;DHT22;64991;41.090;-8.118;2023-05-14T13:45:38;22.00;71.30
74368;DHT22;64991;41.090;-8.118;2023-05-14T13:50:44;22.00;71.10
74368;DHT22;64991;41.090;-8.118;2023-05-14T13:55:47;22.00;71.30
74368;DHT22;64991;41.090;-8.118;2023-05-14T14:00:51;22.00;71.00
74368;DHT22;64991;41.090;-8.118;2023-05-14T14:05:56;22.00;71.20
74368;DHT22;64991;41.090;-8.118;2023-05-14T14:11:00;22.00;71.20
74368;DHT22;64991;41.090;-8.118;2023-05-14T14:16:04;22.00;70.90
74368;DHT22;64991;41.090;-8.118;2023-05-14T14:21:09;22.00;70.70
74368;DHT22;64991;41.090;-8.118;2023-05-14T14:26:12;22.00;70.70
74368;DHT22;64991;41.090;-8.118;2023-05-14T14:31:16;22.10;70.60
74368;DHT22;64991;41.090;-8.118;2023-05-14T14:36:21;22.00;70.50
74368;DHT22;64991;41.090;-8.118;2023-05-14T14:41:25;22.10;70.80
74368;DHT22;64991;41.090;-8.118;2023-05-14T14:46:28;22.00;70.70
74368;DHT22;64991;41.090;-8.118;2023-05-14T14:51:33;22.00;70.70
74368;DHT22;64991;41.090;-8.118;2023-05-14T14:56:37;22.00;70.50
74368;DHT22;64991;41.090;-8.118;2023-05-14T15:01:41;22.00;70.40
74368;DHT22;64991;41.090;-8.118;2023-05-14T15:06:46;22.00;70.40
74368;DHT22;64991;41.090;-8.118;2023-05-14T15:11:49;21.90;70.30
74368;DHT22;64991;41.090;-8.118;2023-05-14T15:16:53;22.00;70.20
74368;DHT22;64991;41.090;-8.118;2023-05-14T15:21:58;22.00;70.20
74368;DHT22;64991;41.090;-8.118;2023-05-14T15:27:01;22.00;70.30
74368;DHT22;64991;41.090;-8.118;2023-05-14T15:32:05;22.00;70.20
74368;DHT22;64991;41.090;-8.118;2023-05-14T15:37:10;22.00;69.80
74368;DHT22;64991;41.090;-8.118;2023-05-14T15:42:14;22.00;70.00
74368;DHT22;64991;41.090;-8.118;2023-05-14T15:47:17;22.00;70.10
74368;DHT22;64991;41.090;-8.118;2023-05-14T15:52:22;22.00;70.40
74368;DHT22;64991;41.090;-8.118;2023-05-14T15:57:26;22.00;70.00
74368;DHT22;64991;41.090;-8.118;2023-05-14T16:02:30;22.10;70.00
74368;DHT22;64991;41.090;-8.118;2023-05-14T16:07:35;22.10;69.90
74368;DHT22;64991;41.090;-8.118;2023-05-14T16:12:39;22.10;69.80
74368;DHT22;64991;41.090;-8.118;2023-05-14T16:17:42;22.00;69.90
74368;DHT22;64991;41.090;-8.118;2023-05-14T16:22:47;21.90;69.90
74368;DHT22;64991;41.090;-8.118;2023-05-14T16:27:51;22.10;69.90
74368;DHT22;64991;41.090;-8.118;2023-05-14T16:32:55;22.00;70.00
74368;DHT22;64991;41.090;-8.118;2023-05-14T16:38:00;22.10;70.20
74368;DHT22;64991;41.090;-8.118;2023-05-14T16:43:03;22.10;70.30
74368;DHT22;64991;41.090;-8.118;2023-05-14T16:48:07;22.10;70.50
74368;DHT22;64991;41.090;-8.118;2023-05-14T16:53:12;22.00;70.90
74368;DHT22;64991;41.090;-8.118;2023-05-14T16:58:15;22.10;71.00
74368;DHT22;64991;41.090;-8.118;2023-05-14T17:03:19;22.10;71.00
74368;DHT22;64991;41.090;-8.118;2023-05-14T17:08:24;22.10;71.50
74368;DHT22;64991;41.090;-8.118;2023-05-14T17:13:32;22.10;71.80
74368;DHT22;64991;41.090;-8.118;2023-05-14T17:18:36;22.10;72.20
74368;DHT22;64991;41.090;-8.118;2023-05-14T17:23:42;22.10;72.30
74368;DHT22;64991;41.090;-8.118;2023-05-14T17:28:45;22.10;72.60
74368;DHT22;64991;41.090;-8.118;2023-05-14T17:33:49;22.10;73.20
74368;DHT22;64991;41.090;-8.118;2023-05-14T17:38:54;22.10;73.20
74368;DHT22;64991;41.090;-8.118;2023-05-14T17:43:57;22.10;73.50
74368;DHT22;64991;41.090;-8.118;2023-05-14T17:49:01;22.00;73.60
74368;DHT22;64991;41.090;-8.118;2023-05-14T17:54:06;22.10;73.70
74368;DHT22;64991;41.090;-8.118;2023-05-14T17:59:09;22.00;74.40
74368;DHT22;64991;41.090;-8.118;2023-05-14T18:04:13;22.10;74.30
74368;DHT22;64991;41.090;-8.118;2023-05-14T18:09:18;22.00;74.50
74368;DHT22;64991;41.090;-8.118;2023-05-14T18:14:22;22.10;74.50
74368;DHT22;64991;41.090;-8.118;2023-05-14T18:19:25;22.10;74.70
74368;DHT22;64991;41.090;-8.118;2023-05-14T18:24:30;22.00;74.40
74368;DHT22;64991;41.090;-8.118;2023-05-14T18:29:34;22.10;75.40
74368;DHT22;64991;41.090;-8.118;2023-05-14T18:34:37;22.00;74.90
74368;DHT22;64991;41.090;-8.118;2023-05-14T18:39:42;22.10;74.70
74368;DHT22;64991;41.090;-8.118;2023-05-14T18:44:46;22.10;74.40
74368;DHT22;64991;41.090;-8.118;2023-05-14T18:49:49;22.00;74.70
74368;DHT22;64991;41.090;-8.118;2023-05-14T18:54:57;22.00;74.80
74368;DHT22;64991;41.090;-8.118;2023-05-14T19:00:00;22.00;74.70
74368;DHT22;64991;41.090;-8.118;2023-05-14T19:05:06;22.00;74.70
74368;DHT22;64991;41.090;-8.118;2023-05-14T19:10:11;22.10;74.80
74368;DHT22;64991;41.090;-8.118;2023-05-14T19:15:15;22.00;74.90
74368;DHT22;64991;41.090;-8.118;2023-05-14T19:20:18;22.00;74.90
74368;DHT22;64991;41.090;-8.118;2023-05-14T19:25:23;22.10;75.20
74368;DHT22;64991;41.090;-8.118;2023-05-14T19:30:27;22.10;75.10
74368;DHT22;64991;41.090;-8.118;2023-05-14T19:35:31;22.00;75.30
74368;DHT22;64991;41.090;-8.118;2023-05-14T19:40:36;22.10;75.40
74368;DHT22;64991;41.090;-8.118;2023-05-14T19:45:39;22.00;75.50
74368;DHT22;64991;41.090;-8.118;2023-05-14T19:50:43;22.00;75.50
74368;DHT22;64991;41.090;-8.118;2023-05-14T19:55:48;22.00;75.70
74368;DHT22;64991;41.090;-8.118;2023-05-14T20:00:52;22.00;75.80
74368;DHT22;64991;41.090;-8.118;2023-05-14T20:05:58;22.00;75.90
74368;DHT22;64991;41.090;-8.118;2023-05-14T20:11:03;22.10;76.00
74368;DHT22;64991;41.090;-8.118;2023-05-14T20:16:06;22.00;76.00
74368;DHT22;64991;41.090;-8.118;2023-05-14T20:21:10;22.00;76.20
74368;DHT22;64991;41.090;-8.118;2023-05-14T20:26:15;22.10;76.20
74368;DHT22;64991;41.090;-8.118;2023-05-14T20:31:18;22.00;76.30
74368;DHT22;64991;41.090;-8.118;2023-05-14T20:36:22;22.00;76.20
74368;DHT22;64991;41.090;-8.118;2023-05-14T20:41:28;22.10;76.30
74368;DHT22;64991;41.090;-8.118;2023-05-14T20:46:31;22.00;76.50
74368;DHT22;64991;41.090;-8.118;2023-05-14T20:51:35;22.00;76.50
74368;DHT22;64991;41.090;-8.118;2023-05-14T20:56:40;22.00;76.80
74368;DHT22;64991;41.090;-8.118;2023-05-14T21:01:43;22.00;76.90
74368;DHT22;64991;41.090;-8.118;2023-05-14T21:06:47;22.00;76.90
74368;DHT22;64991;41.090;-8.118;2023-05-14T21:11:52;22.10;77.20
74368;DHT22;64991;41.090;-8.118;2023-05-14T21:16:55;22.00;77.10
74368;DHT22;64991;41.090;-8.118;2023-05-14T21:21:59;22.10;77.00
74368;DHT22;64991;41.090;-8.118;2023-05-14T21:27:04;22.00;77.10
74368;DHT22;64991;41.090;-8.118;2023-05-14T21:32:08;22.10;77.20
74368;DHT22;64991;41.090;-8.118;2023-05-14T21:37:11;22.00;77.20
74368;DHT22;64991;41.090;-8.118;2023-05-14T21:42:16;21.90;77.00
74368;DHT22;64991;41.090;-8.118;2023-05-14T21:47:21;21.90;77.30
74368;DHT22;64991;41.090;-8.118;2023-05-14T21:52:25;22.00;77.40
74368;DHT22;64991;41.090;-8.118;2023-05-14T21:57:30;22.00;77.50
74368;DHT22;64991;41.090;-8.118;2023-05-14T22:02:35;22.00;77.30
74368;DHT22;64991;41.090;-8.118;2023-05-14T22:07:39;22.00;77.20
74368;DHT22;64991;41.090;-8.118;2023-05-14T22:12:44;22.00;77.60
74368;DHT22;64991;41.090;-8.118;2023-05-14T22:17:48;22.00;77.50
74368;DHT22;64991;41.090;-8.118;2023-05-14T22:22:51;22.00;77.30
74368;DHT22;64991;41.090;-8.118;2023-05-14T22:27:56;22.00;77.50
74368;DHT22;64991;41.090;-8.118;2023-05-14T22:33:00;22.00;77.40
74368;DHT22;64991;41.090;-8.118;2023-05-14T22:38:03;22.00;77.40
74368;DHT22;64991;41.090;-8.118;2023-05-14T22:43:08;22.00;77.40
74368;DHT22;64991;41.090;-8.118;2023-05-14T22:48:12;22.00;77.40
74368;DHT22;64991;41.090;-8.118;2023-05-14T22:53:15;21.90;77.30
74368;DHT22;64991;41.090;-8.118;2023-05-14T22:58:20;22.00;77.40
74368;DHT22;64991;41.090;-8.118;2023-05-14T23:03:24;22.00;77.50
74368;DHT22;64991;41.090;-8.118;2023-05-14T23:08:27;22.00;77.70
74368;DHT22;64991;41.090;-8.118;2023-05-14T23:13:32;22.00;77.50
74368;DHT22;64991;41.090;-8.118;2023-05-14T23:18:36;22.00;77.40
74368;DHT22;64991;41.090;-8.118;2023-05-14T23:23:39;22.00;77.40
74368;DHT22;64991;41.090;-8.118;2023-05-14T23:28:44;21.90;77.30
74368;DHT22;64991;41.090;-8.118;2023-05-14T23:33:48;21.90;77.30
74368;DHT22;64991;41.090;-8.118;2023-05-14T23:38:52;22.00;77.20
74368;DHT22;64991;41.090;-8.118;2023-05-14T23:43:57;21.90;77.30
74368;DHT22;64991;41.090;-8.118;2023-05-14T23:49:00;22.00;77.20
74368;DHT22;64991;41.090;-8.118;2023-05-14T23:54:04;21.90;77.20
74368;DHT22;64991;41.090;-8.118;2023-05-14T23:59:08;21.90;77.40
